createdAt,value
2019-03-26T00:01:07.385Z,3.70
2019-03-26T00:03:36.466Z,3.47
2019-03-26T00:06:05.668Z,2.90
2019-03-26T00:08:34.718Z,3.67
2019-03-26T00:11:03.752Z,3.00
2019-03-26T00:13:32.851Z,3.17
2019-03-26T00:16:02.234Z,2.77
2019-03-26T00:18:31.286Z,3.77
2019-03-26T00:21:00.407Z,3.37
2019-03-26T00:23:29.456Z,2.97
2019-03-26T00:25:58.630Z,3.67
2019-03-26T00:28:28.284Z,2.93
2019-03-26T00:30:57.839Z,3.57
2019-03-26T00:33:36.334Z,3.13
2019-03-26T00:35:57.781Z,3.17
2019-03-26T00:38:26.830Z,3.30
2019-03-26T00:40:56.007Z,3.20
2019-03-26T00:43:25.052Z,3.10
2019-03-26T00:45:54.582Z,3.20
2019-03-26T00:48:23.652Z,3.40
2019-03-26T00:50:52.687Z,4.07
2019-03-26T00:53:22.520Z,3.37
2019-03-26T00:55:51.595Z,3.40
2019-03-26T00:58:20.784Z,3.73
2019-03-26T01:00:49.860Z,3.17
2019-03-26T01:03:18.930Z,3.20
2019-03-26T01:05:48.170Z,3.57
2019-03-26T01:08:17.237Z,3.00
2019-03-26T01:10:46.293Z,2.80
2019-03-26T01:13:15.359Z,3.80
2019-03-26T01:15:44.551Z,3.10
2019-03-26T01:18:13.652Z,3.57
2019-03-26T01:20:42.847Z,2.80
2019-03-26T01:23:11.975Z,2.80
2019-03-26T01:25:41.012Z,3.00
2019-03-26T01:28:10.169Z,3.17
2019-03-26T01:30:41.537Z,3.50
2019-03-26T01:33:10.676Z,3.10
2019-03-26T01:35:39.748Z,2.73
2019-03-26T01:38:09.066Z,2.30
2019-03-26T01:40:38.088Z,3.30
2019-03-26T01:43:07.131Z,2.90
2019-03-26T01:45:36.201Z,2.90
2019-03-26T01:48:05.298Z,2.97
2019-03-26T01:50:34.341Z,2.80
2019-03-26T01:53:03.579Z,2.80
2019-03-26T01:55:32.650Z,2.80
2019-03-26T01:58:01.709Z,3.13
2019-03-26T02:00:30.743Z,2.73
2019-03-26T02:02:59.905Z,2.60
2019-03-26T02:05:28.914Z,2.70
2019-03-26T02:07:58.392Z,2.08
2019-03-26T02:10:27.535Z,3.07
2019-03-26T02:12:56.629Z,2.80
2019-03-26T02:15:29.857Z,2.50
2019-03-26T02:17:59.211Z,2.80
2019-03-26T02:20:28.246Z,3.20
2019-03-26T02:22:57.284Z,2.13
2019-03-26T02:25:26.546Z,2.67
2019-03-26T02:27:55.767Z,3.00
2019-03-26T02:30:24.844Z,2.70
2019-03-26T02:32:53.950Z,3.50
2019-03-26T02:35:23.005Z,2.70
2019-03-26T02:37:52.109Z,3.23
2019-03-26T02:40:21.157Z,3.13
2019-03-26T02:42:51.000Z,2.73
2019-03-26T02:45:20.515Z,3.43
2019-03-26T02:47:49.613Z,2.67
2019-03-26T02:50:18.733Z,2.60
2019-03-26T02:52:47.764Z,3.17
2019-03-26T02:55:16.817Z,2.63
2019-03-26T02:57:45.855Z,2.67
2019-03-26T03:00:15.203Z,2.63
2019-03-26T03:02:44.237Z,2.43
2019-03-26T03:05:13.387Z,3.20
2019-03-26T03:07:42.412Z,2.43
2019-03-26T03:10:11.911Z,2.67
2019-03-26T03:12:40.924Z,2.43
2019-03-26T03:15:10.311Z,2.20
2019-03-26T03:17:39.403Z,3.03
2019-03-26T03:20:08.804Z,2.50
2019-03-26T03:22:37.860Z,2.67
2019-03-26T03:25:07.043Z,2.70
2019-03-26T03:27:36.209Z,2.37
2019-03-26T03:30:06.398Z,2.43
2019-03-26T03:32:35.624Z,2.47
2019-03-26T03:35:05.034Z,2.63
2019-03-26T03:37:34.641Z,3.43
2019-03-26T03:40:03.678Z,2.57
2019-03-26T03:42:32.755Z,2.57
2019-03-26T03:45:01.791Z,2.50
2019-03-26T03:47:34.059Z,2.57
2019-03-26T03:50:04.081Z,2.23
2019-03-26T03:52:35.686Z,2.53
2019-03-26T03:55:05.267Z,2.83
2019-03-26T03:57:35.772Z,2.53
2019-03-26T04:00:05.339Z,2.70
2019-03-26T04:02:34.503Z,2.57
2019-03-26T04:05:03.515Z,3.03
2019-03-26T04:07:32.590Z,2.40
2019-03-26T04:10:01.642Z,3.00
2019-03-26T04:12:30.780Z,3.20
2019-03-26T04:15:02.610Z,2.50
2019-03-26T04:17:31.712Z,2.83
2019-03-26T04:20:00.757Z,2.80
2019-03-26T04:22:29.844Z,2.73
2019-03-26T04:24:59.067Z,2.40
2019-03-26T04:27:28.511Z,3.10
2019-03-26T04:29:57.685Z,2.53
2019-03-26T04:32:26.775Z,2.57
2019-03-26T04:34:55.822Z,2.67
2019-03-26T04:37:24.880Z,2.57
2019-03-26T04:39:53.960Z,2.93
2019-03-26T04:42:22.991Z,2.83
2019-03-26T04:44:52.067Z,3.23
2019-03-26T04:47:21.135Z,2.90
2019-03-26T04:49:50.376Z,2.70
2019-03-26T04:52:19.453Z,1.87
2019-03-26T04:54:48.535Z,2.90
2019-03-26T04:57:17.768Z,2.43
2019-03-26T04:59:46.834Z,3.33
2019-03-26T05:02:15.873Z,2.77
2019-03-26T05:04:44.909Z,3.30
2019-03-26T05:07:14.429Z,3.33
2019-03-26T05:09:43.584Z,3.37
2019-03-26T05:12:12.656Z,3.30
2019-03-26T05:14:41.734Z,3.20
2019-03-26T05:17:10.731Z,3.80
2019-03-26T05:19:39.911Z,3.00
2019-03-26T05:22:08.975Z,3.27
2019-03-26T05:24:38.170Z,3.10
2019-03-26T05:27:07.187Z,3.40
2019-03-26T05:29:36.386Z,2.90
2019-03-26T05:32:05.481Z,3.80
2019-03-26T05:34:34.527Z,4.03
2019-03-26T05:37:03.683Z,3.33
2019-03-26T05:39:33.532Z,3.23
2019-03-26T05:42:03.251Z,2.53
2019-03-26T05:44:38.724Z,2.87
2019-03-26T05:47:09.043Z,2.80
2019-03-26T05:49:38.809Z,3.27
2019-03-26T05:52:08.900Z,3.30
2019-03-26T05:54:38.106Z,2.53
2019-03-26T05:57:07.321Z,3.17
2019-03-26T05:59:36.755Z,2.93
2019-03-26T06:02:14.271Z,2.57
2019-03-26T06:04:37.109Z,2.70
2019-03-26T06:07:06.241Z,2.80
2019-03-26T06:09:35.293Z,2.97
2019-03-26T06:12:04.414Z,2.73
2019-03-26T06:14:33.788Z,2.80
2019-03-26T06:17:03.007Z,3.13
2019-03-26T06:19:32.207Z,3.00
2019-03-26T06:22:01.305Z,2.83
2019-03-26T06:24:30.976Z,2.87
2019-03-26T06:27:00.912Z,2.93
2019-03-26T06:29:30.749Z,3.87
2019-03-26T06:32:00.513Z,2.77
2019-03-26T06:34:29.725Z,2.63
2019-03-26T06:36:58.786Z,2.60
2019-03-26T06:39:27.873Z,2.97
2019-03-26T06:41:56.894Z,3.20
2019-03-26T06:44:26.005Z,2.80
2019-03-26T06:46:55.117Z,2.53
2019-03-26T06:49:24.155Z,2.90
2019-03-26T06:51:53.328Z,2.70
2019-03-26T06:54:22.692Z,2.60
2019-03-26T06:56:51.856Z,2.53
2019-03-26T06:59:22.102Z,2.63
2019-03-26T07:01:52.153Z,2.80
2019-03-26T07:04:21.423Z,2.87
2019-03-26T07:06:50.597Z,2.83
2019-03-26T07:09:20.025Z,2.73
2019-03-26T07:11:49.386Z,2.73
2019-03-26T07:14:24.232Z,2.80
2019-03-26T07:16:53.408Z,2.80
2019-03-26T07:19:22.783Z,2.83
2019-03-26T07:21:53.645Z,2.90
2019-03-26T07:24:22.983Z,2.47
2019-03-26T07:26:51.973Z,3.73
2019-03-26T07:29:21.051Z,3.40
2019-03-26T07:31:50.196Z,3.07
2019-03-26T07:34:19.316Z,3.33
2019-03-26T07:36:48.439Z,3.23
2019-03-26T07:39:18.011Z,3.67
2019-03-26T07:41:47.157Z,3.10
2019-03-26T07:44:16.566Z,3.00
2019-03-26T07:46:45.955Z,2.70
2019-03-26T07:49:17.076Z,3.13
2019-03-26T07:51:46.182Z,3.50
2019-03-26T07:54:15.426Z,3.10
2019-03-26T07:56:44.492Z,2.93
2019-03-26T07:59:13.633Z,2.70
2019-03-26T08:01:42.971Z,3.23
2019-03-26T08:04:12.783Z,3.13
2019-03-26T08:06:42.006Z,2.80
2019-03-26T08:09:11.155Z,2.23
2019-03-26T08:11:40.308Z,2.90
2019-03-26T08:14:09.351Z,3.35
2019-03-26T08:16:38.406Z,2.63
2019-03-26T08:19:07.550Z,2.90
2019-03-26T08:21:36.668Z,2.43
2019-03-26T08:24:05.822Z,2.87
2019-03-26T08:26:34.966Z,2.30
2019-03-26T08:29:04.374Z,2.50
2019-03-26T08:31:33.498Z,2.50
2019-03-26T08:34:02.532Z,3.00
2019-03-26T08:36:31.575Z,2.97
2019-03-26T08:39:00.632Z,2.80
2019-03-26T08:41:29.676Z,2.80
2019-03-26T08:43:58.736Z,2.50
2019-03-26T08:46:27.870Z,2.60
2019-03-26T08:48:56.895Z,2.50
2019-03-26T08:51:26.171Z,3.07
2019-03-26T08:53:55.309Z,2.93
2019-03-26T08:56:24.392Z,2.97
2019-03-26T08:58:53.730Z,2.80
2019-03-26T09:01:22.882Z,3.10
2019-03-26T09:03:56.956Z,2.90
2019-03-26T09:06:26.085Z,2.80
2019-03-26T09:08:55.617Z,3.27
2019-03-26T09:11:24.710Z,3.00
2019-03-26T09:13:53.747Z,3.00
2019-03-26T09:16:22.977Z,3.17
2019-03-26T09:18:52.238Z,2.93
2019-03-26T09:21:21.317Z,2.80
2019-03-26T09:23:50.589Z,2.37
2019-03-26T09:26:19.984Z,3.03
2019-03-26T09:28:49.072Z,3.40
2019-03-26T09:31:18.132Z,3.63
2019-03-26T09:33:47.205Z,2.97
2019-03-26T09:36:16.246Z,2.73
2019-03-26T09:38:45.313Z,2.97
2019-03-26T09:41:14.356Z,2.63
2019-03-26T09:43:43.410Z,2.60
2019-03-26T09:46:12.436Z,3.13
2019-03-26T09:48:41.467Z,2.67
2019-03-26T09:51:10.913Z,2.60
2019-03-26T09:53:40.153Z,2.50
2019-03-26T09:56:09.273Z,2.10
2019-03-26T09:58:38.286Z,3.13
2019-03-26T10:01:07.372Z,2.90
2019-03-26T10:03:36.594Z,3.13
2019-03-26T10:06:05.745Z,2.70
2019-03-26T10:08:34.980Z,3.30
2019-03-26T10:11:04.208Z,2.83
2019-03-26T10:13:36.209Z,2.70
2019-03-26T10:16:04.315Z,3.27
2019-03-26T10:18:33.367Z,2.70
2019-03-26T10:21:02.502Z,2.90
2019-03-26T10:23:31.666Z,2.90
2019-03-26T10:26:00.700Z,2.83
2019-03-26T10:28:29.972Z,3.10
2019-03-26T10:30:59.006Z,3.13
2019-03-26T10:33:29.051Z,2.63
2019-03-26T10:35:58.138Z,2.80
2019-03-26T10:38:27.763Z,2.60
2019-03-26T10:40:57.082Z,3.00
2019-03-26T10:43:26.247Z,2.90
2019-03-26T10:45:55.339Z,2.50
2019-03-26T10:48:25.945Z,2.67
2019-03-26T10:50:55.177Z,2.70
2019-03-26T10:53:24.240Z,3.03
2019-03-26T10:55:54.068Z,3.03
2019-03-26T10:58:23.107Z,2.90
2019-03-26T11:00:52.204Z,2.60
2019-03-26T11:03:21.217Z,3.10
2019-03-26T11:05:50.235Z,2.70
2019-03-26T11:08:29.126Z,2.47
2019-03-26T11:10:58.143Z,2.60
2019-03-26T11:13:27.176Z,2.17
2019-03-26T11:15:56.192Z,2.77
2019-03-26T11:18:25.292Z,2.43
2019-03-26T11:21:02.395Z,2.50
2019-03-26T11:23:25.254Z,2.90
2019-03-26T11:25:54.293Z,2.63
2019-03-26T11:28:23.318Z,2.93
2019-03-26T11:30:52.354Z,2.17
2019-03-26T11:33:21.402Z,2.30
2019-03-26T11:35:50.770Z,2.90
2019-03-26T11:38:19.944Z,2.40
2019-03-26T11:40:48.998Z,2.57
2019-03-26T11:43:18.103Z,3.50
2019-03-26T11:45:47.120Z,2.63
2019-03-26T11:48:16.159Z,2.23
2019-03-26T11:50:45.197Z,2.53
2019-03-26T11:53:14.800Z,2.80
2019-03-26T11:55:43.899Z,2.50
2019-03-26T11:58:13.045Z,2.60
2019-03-26T12:00:42.154Z,2.40
2019-03-26T12:03:11.261Z,2.70
2019-03-26T12:05:40.513Z,2.40
2019-03-26T12:08:09.549Z,2.43
2019-03-26T12:10:38.591Z,2.67
2019-03-26T12:13:07.631Z,2.27
2019-03-26T12:15:36.801Z,2.33
2019-03-26T12:18:06.302Z,2.30
2019-03-26T12:20:35.478Z,2.80
2019-03-26T12:23:04.498Z,3.30
2019-03-26T12:25:33.670Z,2.43
2019-03-26T12:28:02.755Z,2.80
2019-03-26T12:30:32.703Z,2.83
2019-03-26T12:33:01.970Z,3.13
2019-03-26T12:35:31.410Z,2.57
2019-03-26T12:38:00.449Z,2.60
2019-03-26T12:40:29.832Z,2.63
2019-03-26T12:42:58.995Z,2.47
2019-03-26T12:45:28.078Z,2.80
2019-03-26T12:47:57.074Z,2.77
2019-03-26T12:50:26.380Z,2.70
2019-03-26T12:52:55.461Z,3.03
2019-03-26T12:55:24.497Z,2.53
2019-03-26T12:57:54.374Z,2.87
2019-03-26T13:00:25.426Z,2.73
2019-03-26T13:02:54.527Z,2.40
2019-03-26T13:05:23.582Z,2.93
2019-03-26T13:07:52.679Z,2.97
2019-03-26T13:10:21.834Z,3.07
2019-03-26T13:12:50.878Z,3.23
2019-03-26T13:15:20.142Z,2.50
2019-03-26T13:17:49.698Z,2.80
2019-03-26T13:20:18.732Z,3.27
2019-03-26T13:22:47.954Z,3.03
2019-03-26T13:25:17.128Z,3.17
2019-03-26T13:27:46.392Z,2.80
2019-03-26T13:30:15.923Z,2.57
2019-03-26T13:32:44.967Z,1.90
2019-03-26T13:35:13.963Z,2.17
2019-03-26T13:37:43.251Z,2.23
2019-03-26T13:40:26.271Z,2.00
2019-03-26T13:42:43.631Z,1.97
2019-03-26T13:45:12.980Z,2.10
2019-03-26T13:47:42.367Z,2.07
2019-03-26T13:50:12.967Z,2.20
2019-03-26T13:52:42.203Z,1.97
2019-03-26T13:55:12.051Z,2.23
2019-03-26T13:57:42.564Z,2.10
2019-03-26T14:00:11.971Z,2.10
2019-03-26T14:02:41.010Z,2.17
2019-03-26T14:05:14.479Z,2.23
2019-03-26T14:07:45.016Z,2.50
2019-03-26T14:10:14.562Z,2.50
2019-03-26T14:12:43.750Z,2.57
2019-03-26T14:15:12.817Z,2.40
2019-03-26T14:17:41.880Z,2.40
2019-03-26T14:20:11.630Z,2.60
2019-03-26T14:22:40.666Z,3.23
2019-03-26T14:25:09.848Z,2.80
2019-03-26T14:27:38.914Z,2.57
2019-03-26T14:30:08.584Z,2.73
2019-03-26T14:32:37.635Z,2.90
2019-03-26T14:35:07.337Z,2.63
2019-03-26T14:37:50.223Z,2.83
2019-03-26T14:40:07.893Z,2.57
2019-03-26T14:42:37.030Z,2.90
2019-03-26T14:45:06.507Z,3.20
2019-03-26T14:47:35.528Z,2.43
2019-03-26T14:50:04.988Z,3.10
2019-03-26T14:52:34.058Z,2.40
2019-03-26T14:55:03.327Z,2.90
2019-03-26T14:57:32.515Z,2.77
2019-03-26T15:00:01.617Z,3.13
2019-03-26T15:02:30.911Z,2.27
2019-03-26T15:04:59.983Z,2.90
2019-03-26T15:07:29.174Z,2.73
2019-03-26T15:09:58.243Z,3.20
2019-03-26T15:12:27.336Z,2.97
2019-03-26T15:14:56.476Z,2.57
2019-03-26T15:17:25.618Z,2.37
2019-03-26T15:19:55.344Z,2.87
2019-03-26T15:22:24.489Z,3.30
2019-03-26T15:24:53.588Z,2.00
2019-03-26T15:27:22.658Z,3.03
2019-03-26T15:29:51.664Z,3.53
2019-03-26T15:32:20.747Z,2.90
2019-03-26T15:34:50.074Z,2.70
2019-03-26T15:37:19.338Z,3.07
2019-03-26T15:39:48.447Z,2.27
2019-03-26T15:42:17.494Z,2.43
2019-03-26T15:44:57.926Z,3.00
2019-03-26T15:47:26.994Z,2.40
2019-03-26T15:49:56.025Z,2.80
2019-03-26T15:52:25.099Z,3.07
2019-03-26T15:54:54.143Z,2.80
2019-03-26T15:57:23.728Z,2.70
2019-03-26T15:59:53.012Z,3.53
2019-03-26T16:02:22.098Z,3.20
2019-03-26T16:04:51.111Z,3.20
2019-03-26T16:07:20.235Z,2.53
2019-03-26T16:09:49.399Z,2.73
2019-03-26T16:12:18.521Z,2.67
2019-03-26T16:14:49.157Z,2.80
2019-03-26T16:17:18.244Z,2.80
2019-03-26T16:19:52.093Z,3.13
2019-03-26T16:22:24.260Z,2.97
2019-03-26T16:24:53.586Z,2.80
2019-03-26T16:27:22.843Z,2.83
2019-03-26T16:29:51.912Z,2.30
2019-03-26T16:32:21.058Z,2.77
2019-03-26T16:34:50.144Z,3.23
2019-03-26T16:37:19.474Z,2.60
2019-03-26T16:39:48.775Z,2.57
2019-03-26T16:42:18.247Z,2.30
2019-03-26T16:44:47.576Z,2.93
2019-03-26T16:47:16.861Z,2.83
2019-03-26T16:49:46.023Z,2.97
2019-03-26T16:52:15.142Z,2.93
2019-03-26T16:54:44.336Z,2.73
2019-03-26T16:57:14.927Z,2.27
2019-03-26T16:59:44.056Z,2.27
2019-03-26T17:02:13.244Z,2.62
2019-03-26T17:04:42.848Z,2.77
2019-03-26T17:07:12.447Z,2.97
2019-03-26T17:09:41.763Z,2.30
2019-03-26T17:12:10.905Z,2.90
2019-03-26T17:14:40.110Z,2.70
2019-03-26T17:17:09.205Z,3.00
2019-03-26T17:19:38.309Z,2.20
2019-03-26T17:22:07.451Z,2.33
2019-03-26T17:24:37.042Z,2.30
2019-03-26T17:27:06.642Z,2.87
2019-03-26T17:29:35.843Z,2.60
2019-03-26T17:32:05.798Z,2.70
2019-03-26T17:34:35.049Z,2.70
2019-03-26T17:37:04.252Z,3.17
2019-03-26T17:39:33.312Z,2.30
2019-03-26T17:42:16.168Z,2.40
2019-03-26T17:44:33.450Z,2.20
2019-03-26T17:47:02.758Z,2.30
2019-03-26T17:49:31.835Z,2.60
2019-03-26T17:52:01.353Z,3.13
2019-03-26T17:54:30.515Z,2.70
2019-03-26T17:56:59.859Z,2.80
2019-03-26T17:59:29.105Z,2.70
2019-03-26T18:01:58.304Z,2.33
2019-03-26T18:04:27.618Z,2.50
2019-03-26T18:06:56.918Z,2.57
2019-03-26T18:09:25.950Z,2.87
2019-03-26T18:11:55.920Z,3.60
2019-03-26T18:14:25.352Z,3.23
2019-03-26T18:16:54.526Z,2.73
2019-03-26T18:19:24.148Z,2.47
2019-03-26T18:21:53.402Z,3.20
2019-03-26T18:24:23.321Z,2.97
2019-03-26T18:26:52.410Z,3.50
2019-03-26T18:29:21.449Z,2.60
2019-03-26T18:31:50.678Z,2.63
2019-03-26T18:34:19.953Z,3.00
2019-03-26T18:36:49.334Z,2.70
2019-03-26T18:39:18.547Z,3.03
2019-03-26T18:41:47.777Z,2.57
2019-03-26T18:44:17.514Z,2.33
2019-03-26T18:46:46.929Z,3.93
2019-03-26T18:49:16.427Z,3.10
2019-03-26T18:51:46.475Z,3.07
2019-03-26T18:54:16.021Z,3.33
2019-03-26T18:56:45.178Z,2.80
2019-03-26T18:59:14.961Z,2.73
2019-03-26T19:01:44.062Z,2.77
2019-03-26T19:04:13.123Z,3.00
2019-03-26T19:06:42.338Z,3.00
2019-03-26T19:09:11.872Z,3.40
2019-03-26T19:11:41.726Z,3.00
2019-03-26T19:14:11.146Z,3.90
2019-03-26T19:16:40.554Z,3.17
2019-03-26T19:19:09.930Z,2.90
2019-03-26T19:21:39.460Z,2.70
2019-03-26T19:24:09.629Z,2.60
2019-03-26T19:26:39.713Z,3.20
2019-03-26T19:29:09.040Z,2.90
2019-03-26T19:31:38.548Z,2.90
2019-03-26T19:34:07.931Z,3.13
2019-03-26T19:36:37.391Z,2.90
2019-03-26T19:39:08.202Z,3.10
2019-03-26T19:41:37.356Z,3.40
2019-03-26T19:44:06.644Z,3.30
2019-03-26T19:46:38.175Z,3.00
2019-03-26T19:49:08.234Z,2.90
2019-03-26T19:51:37.641Z,3.03
2019-03-26T19:54:06.993Z,3.20
2019-03-26T19:56:36.436Z,2.87
2019-03-26T19:59:05.672Z,4.50
2019-03-26T20:01:34.908Z,5.00
2019-03-26T20:04:04.013Z,3.20
2019-03-26T20:06:34.431Z,3.20
2019-03-26T20:09:04.909Z,3.37
2019-03-26T20:11:34.573Z,2.87
2019-03-26T20:14:03.734Z,3.20
2019-03-26T20:16:41.725Z,3.27
2019-03-26T20:19:04.179Z,3.00
2019-03-26T20:21:33.647Z,3.10
2019-03-26T20:24:02.883Z,2.50
2019-03-26T20:26:32.230Z,2.57
2019-03-26T20:29:01.859Z,2.73
2019-03-26T20:31:31.235Z,2.80
2019-03-26T20:34:00.352Z,3.03
2019-03-26T20:36:29.780Z,3.20
2019-03-26T20:38:59.776Z,3.27
2019-03-26T20:41:29.295Z,3.20
2019-03-26T20:43:58.582Z,2.97
2019-03-26T20:46:27.708Z,3.50
2019-03-26T20:48:57.994Z,3.07
2019-03-26T20:51:27.241Z,2.90
2019-03-26T20:53:56.478Z,3.60
2019-03-26T20:56:25.969Z,2.73
2019-03-26T20:58:55.220Z,3.47
2019-03-26T21:01:24.480Z,3.10
2019-03-26T21:03:53.888Z,3.10
2019-03-26T21:06:23.222Z,3.10
2019-03-26T21:08:52.836Z,3.00
2019-03-26T21:11:22.142Z,3.70
2019-03-26T21:13:51.359Z,3.37
2019-03-26T21:16:21.094Z,3.27
2019-03-26T21:18:50.355Z,3.30
2019-03-26T21:21:19.770Z,3.20
2019-03-26T21:23:49.453Z,3.10
2019-03-26T21:26:18.883Z,4.17
2019-03-26T21:28:48.081Z,3.77
2019-03-26T21:31:17.220Z,3.70
2019-03-26T21:33:46.576Z,3.27
2019-03-26T21:36:15.737Z,3.50
2019-03-26T21:38:45.300Z,3.73
2019-03-26T21:41:14.459Z,3.73
2019-03-26T21:43:44.373Z,3.73
2019-03-26T21:46:13.524Z,3.17
2019-03-26T21:48:42.757Z,3.83
2019-03-26T21:51:12.102Z,4.53
2019-03-26T21:53:41.433Z,3.47
2019-03-26T21:56:10.681Z,4.00
2019-03-26T21:58:39.786Z,4.30
2019-03-26T22:01:09.371Z,3.90
2019-03-26T22:03:38.471Z,4.23
2019-03-26T22:06:07.778Z,4.10
2019-03-26T22:08:37.310Z,4.37
2019-03-26T22:11:06.421Z,4.60
2019-03-26T22:13:35.702Z,4.47
2019-03-26T22:16:04.926Z,4.80
2019-03-26T22:18:36.305Z,4.47
2019-03-26T22:21:05.463Z,4.70
2019-03-26T22:23:34.634Z,4.67
2019-03-26T22:26:03.695Z,4.60
2019-03-26T22:28:32.798Z,4.93
2019-03-26T22:31:02.567Z,4.50
2019-03-26T22:33:31.664Z,5.27
2019-03-26T22:36:01.060Z,5.60
2019-03-26T22:38:30.268Z,5.27
2019-03-26T22:40:59.607Z,6.07
2019-03-26T22:43:28.716Z,6.07
2019-03-26T22:45:58.099Z,5.70
2019-03-26T22:48:27.229Z,5.63
2019-03-26T22:50:56.417Z,5.70
2019-03-26T22:53:25.679Z,6.40
2019-03-26T22:55:54.785Z,6.47
2019-03-26T22:58:23.935Z,6.70
2019-03-26T23:00:53.087Z,6.63
2019-03-26T23:03:22.173Z,6.60
2019-03-26T23:05:51.404Z,6.70
2019-03-26T23:08:20.593Z,6.90
2019-03-26T23:10:49.732Z,7.37
2019-03-26T23:13:18.787Z,6.90
2019-03-26T23:15:49.443Z,7.97
2019-03-26T23:18:18.820Z,7.20
2019-03-26T23:20:48.777Z,7.47
2019-03-26T23:23:18.109Z,7.00
2019-03-26T23:25:47.764Z,7.80
2019-03-26T23:28:17.058Z,6.90
2019-03-26T23:30:46.188Z,8.30
2019-03-26T23:33:15.455Z,6.57
2019-03-26T23:35:44.659Z,7.40
2019-03-26T23:38:13.799Z,6.73
2019-03-26T23:40:42.918Z,6.27
2019-03-26T23:43:12.308Z,7.93
2019-03-26T23:45:41.695Z,7.57
2019-03-26T23:48:10.800Z,7.83
2019-03-26T23:50:40.296Z,7.40
2019-03-26T23:53:09.444Z,7.03
2019-03-26T23:55:38.597Z,7.03
2019-03-26T23:58:07.719Z,7.77
